createdAt,value
2023-07-12T00:00:17.575Z,99076.31
2023-07-12T00:03:24.246Z,99086.91
2023-07-12T00:06:38.271Z,99085.66
2023-07-12T00:09:40.937Z,99095.03
2023-07-12T00:12:43.314Z,99099.13
2023-07-12T00:15:47.666Z,99102.56
2023-07-12T00:18:50.293Z,99088.88
2023-07-12T00:21:52.591Z,99086.41
2023-07-12T00:24:54.815Z,99092.34
2023-07-12T00:27:57.384Z,99091.31
2023-07-12T00:30:59.647Z,99089.34
2023-07-12T00:34:02.807Z,99080.41
2023-07-12T00:37:12.982Z,99080.50
2023-07-12T00:40:54.469Z,99076.38
2023-07-12T00:44:05.895Z,99080.50
2023-07-12T00:47:12.678Z,99082.16
2023-07-12T00:50:20.260Z,99080.50
2023-07-12T00:53:24.918Z,99071.59
2023-07-12T00:56:27.799Z,99064.56
2023-07-12T00:59:31.285Z,99063.66
2023-07-12T01:02:33.870Z,99065.28
2023-07-12T01:05:37.295Z,99065.38
2023-07-12T01:08:44.662Z,99065.31
2023-07-12T01:11:47.567Z,99065.97
2023-07-12T01:14:49.892Z,99062.47
2023-07-12T01:17:52.280Z,99058.94
2023-07-12T01:21:08.329Z,99053.03
2023-07-12T01:24:13.286Z,99046.09
2023-07-12T01:27:21.437Z,99044.97
2023-07-12T01:30:23.676Z,99039.75
2023-07-12T01:33:26.412Z,99037.81
2023-07-12T01:36:30.085Z,99030.78
2023-07-12T01:39:34.191Z,99031.50
2023-07-12T01:42:36.449Z,99028.09
2023-07-12T01:45:38.767Z,99037.03
2023-07-12T01:48:41.615Z,99033.63
2023-07-12T01:51:44.599Z,99036.97
2023-07-12T01:54:50.960Z,99034.22
2023-07-12T01:57:54.757Z,99041.16
2023-07-12T02:00:59.231Z,99048.47
2023-07-12T02:04:02.038Z,99042.38
2023-07-12T02:07:04.784Z,99038.91
2023-07-12T02:10:19.042Z,99043.31
2023-07-12T02:13:22.648Z,99046.09
2023-07-12T02:16:24.998Z,99035.19
2023-07-12T02:19:27.280Z,99044.78
2023-07-12T02:22:31.928Z,99042.16
2023-07-12T02:25:34.984Z,99043.94
2023-07-12T02:28:40.392Z,99040.66
2023-07-12T02:31:43.396Z,99037.31
2023-07-12T02:34:45.712Z,99031.38
2023-07-12T02:37:48.730Z,99018.28
2023-07-12T02:40:50.984Z,99009.34
2023-07-12T02:43:53.243Z,99024.94
2023-07-12T02:46:55.539Z,99022.13
2023-07-12T02:49:57.814Z,99013.25
2023-07-12T02:53:00.068Z,99022.72
2023-07-12T02:56:04.635Z,99016.44
2023-07-12T02:59:07.159Z,99005.06
2023-07-12T03:02:11.484Z,99003.19
2023-07-12T03:05:13.853Z,98999.47
2023-07-12T03:08:16.134Z,99014.25
2023-07-12T03:11:18.415Z,99010.06
2023-07-12T03:14:22.449Z,99006.59
2023-07-12T03:17:24.724Z,98995.28
2023-07-12T03:20:27.030Z,98988.53
2023-07-12T03:23:34.157Z,98981.91
2023-07-12T03:26:37.378Z,98986.47
2023-07-12T03:29:39.600Z,98986.59
2023-07-12T03:32:41.896Z,98982.47
2023-07-12T03:35:51.056Z,98990.56
2023-07-12T03:38:53.860Z,99001.16
2023-07-12T03:41:56.363Z,99013.66
2023-07-12T03:44:58.768Z,99023.38
2023-07-12T03:48:01.052Z,99019.22
2023-07-12T03:51:03.452Z,99023.66
2023-07-12T03:54:05.751Z,99026.31
2023-07-12T03:57:08.668Z,99011.69
2023-07-12T04:00:14.028Z,99003.00
2023-07-12T04:03:17.874Z,99011.88
2023-07-12T04:06:20.232Z,99002.22
2023-07-12T04:09:22.478Z,98994.44
2023-07-12T04:12:24.936Z,98988.41
2023-07-12T04:15:27.223Z,98991.19
2023-07-12T04:18:29.873Z,99010.41
2023-07-12T04:21:32.333Z,99008.75
2023-07-12T04:24:34.572Z,98997.53
2023-07-12T04:27:38.472Z,98996.00
2023-07-12T04:30:40.833Z,99000.66
2023-07-12T04:33:43.280Z,98991.94
2023-07-12T04:36:45.534Z,98996.44
2023-07-12T04:39:47.775Z,98987.00
2023-07-12T04:42:50.086Z,98988.91
2023-07-12T04:45:53.695Z,98981.09
2023-07-12T04:48:56.994Z,98981.19
2023-07-12T04:51:59.741Z,99003.28
2023-07-12T04:55:19.686Z,99011.38
2023-07-12T04:58:22.207Z,98996.19
2023-07-12T05:01:24.594Z,99003.47
2023-07-12T05:04:27.014Z,99007.94
2023-07-12T05:07:32.443Z,98998.38
2023-07-12T05:10:34.952Z,98990.44
2023-07-12T05:13:37.314Z,98999.00
2023-07-12T05:16:39.716Z,98993.59
2023-07-12T05:19:42.127Z,98994.09
2023-07-12T05:22:44.615Z,99003.41
2023-07-12T05:25:51.489Z,98993.59
2023-07-12T05:28:54.658Z,98993.56
2023-07-12T05:31:57.384Z,98987.47
2023-07-12T05:34:59.736Z,98991.75
2023-07-12T05:38:02.041Z,99005.41
2023-07-12T05:41:04.767Z,99009.56
2023-07-12T05:44:07.125Z,99032.19
2023-07-12T05:47:09.455Z,99030.28
2023-07-12T05:50:14.463Z,99021.78
2023-07-12T05:53:16.739Z,99022.78
2023-07-12T05:56:18.975Z,99027.91
2023-07-12T05:59:22.785Z,99034.78
2023-07-12T06:02:25.302Z,99046.84
2023-07-12T06:05:27.764Z,99051.03
2023-07-12T06:08:30.126Z,99045.69
2023-07-12T06:11:32.464Z,99045.56
2023-07-12T06:14:34.962Z,99036.03
2023-07-12T06:17:37.618Z,99024.28
2023-07-12T06:20:39.867Z,99023.69
2023-07-12T06:23:43.331Z,99013.34
2023-07-12T06:26:46.151Z,98999.59
2023-07-12T06:29:48.664Z,99002.59
2023-07-12T06:32:51.080Z,98974.44
2023-07-12T06:35:53.674Z,98977.78
2023-07-12T06:38:56.096Z,98965.47
2023-07-12T06:41:58.399Z,98963.38
2023-07-12T06:45:08.128Z,98954.25
2023-07-12T06:48:10.423Z,98942.25
2023-07-12T06:51:12.878Z,98931.84
2023-07-12T06:54:15.929Z,98924.84
2023-07-12T06:57:18.236Z,98916.09
2023-07-12T07:00:20.933Z,98920.44
2023-07-12T07:03:23.988Z,98921.28
2023-07-12T07:06:26.693Z,98918.69
2023-07-12T07:09:29.035Z,98917.75
2023-07-12T07:12:32.434Z,98923.78
2023-07-12T07:15:34.850Z,98919.94
2023-07-12T07:18:37.597Z,98914.38
2023-07-12T07:21:42.562Z,98923.56
2023-07-12T07:24:45.229Z,98919.66
2023-07-12T07:27:48.115Z,98912.22
2023-07-12T07:30:56.962Z,98899.25
2023-07-12T07:33:59.222Z,98892.38
2023-07-12T07:37:01.861Z,98891.06
2023-07-12T07:40:04.766Z,98878.41
2023-07-12T07:43:07.328Z,98866.50
2023-07-12T07:46:10.883Z,98852.00
2023-07-12T07:49:13.409Z,98844.72
2023-07-12T07:52:15.666Z,98823.97
2023-07-12T07:55:17.925Z,98841.53
2023-07-12T07:58:21.906Z,98839.31
2023-07-12T08:01:24.210Z,98828.97
2023-07-12T08:04:26.643Z,98836.13
2023-07-12T08:07:29.324Z,98837.59
2023-07-12T08:10:33.688Z,98845.81
2023-07-12T08:13:36.453Z,98851.16
2023-07-12T08:16:38.907Z,98828.56
2023-07-12T08:19:41.263Z,98831.78
2023-07-12T08:22:43.938Z,98819.72
2023-07-12T08:25:46.230Z,98820.38
2023-07-12T08:28:49.088Z,98820.34
2023-07-12T08:31:54.071Z,98809.78
2023-07-12T08:34:57.708Z,98799.78
2023-07-12T08:38:00.031Z,98804.06
2023-07-12T08:41:02.369Z,98798.09
2023-07-12T08:44:06.720Z,98796.16
2023-07-12T08:47:20.941Z,98791.00
2023-07-12T08:50:23.461Z,98794.22
2023-07-12T08:53:31.074Z,98802.78
2023-07-12T08:56:33.521Z,98792.91
2023-07-12T08:59:35.933Z,98801.91
2023-07-12T09:02:38.486Z,98802.91
2023-07-12T09:05:40.927Z,98812.72
2023-07-12T09:08:51.976Z,98827.19
2023-07-12T09:11:55.568Z,98835.75
2023-07-12T09:15:00.649Z,98839.19
2023-07-12T09:18:07.589Z,98834.91
2023-07-12T09:21:22.618Z,98825.41
2023-07-12T09:24:29.145Z,98827.19
2023-07-12T09:27:31.397Z,98818.06
2023-07-12T09:30:35.817Z,98821.84
2023-07-12T09:33:38.276Z,98818.28
2023-07-12T09:36:40.889Z,98819.13
2023-07-12T09:39:53.749Z,98826.34
2023-07-12T09:42:59.563Z,98831.41
2023-07-12T09:46:26.451Z,98834.56
2023-07-12T09:49:40.710Z,98836.16
2023-07-12T09:52:57.816Z,98841.28
2023-07-12T09:56:26.616Z,98843.97
2023-07-12T09:59:31.789Z,98846.69
2023-07-12T10:03:16.125Z,98835.06
2023-07-12T10:06:43.883Z,98837.00
2023-07-12T10:09:49.524Z,98831.47
2023-07-12T10:13:28.811Z,98835.22
2023-07-12T10:16:36.167Z,98812.06
2023-07-12T10:19:41.267Z,98820.56
2023-07-12T10:22:45.720Z,98814.25
2023-07-12T10:26:10.423Z,98810.44
2023-07-12T10:29:22.627Z,98806.31
2023-07-12T10:32:37.735Z,98810.16
2023-07-12T10:35:50.217Z,98781.28
2023-07-12T10:38:53.083Z,98797.41
2023-07-12T10:42:06.982Z,98800.66
2023-07-12T10:45:26.313Z,98793.63
2023-07-12T10:48:30.458Z,98792.41
2023-07-12T10:51:38.362Z,98784.59
2023-07-12T10:54:53.046Z,98795.09
2023-07-12T10:58:26.005Z,98795.47
2023-07-12T11:01:43.494Z,98797.13
2023-07-12T11:04:48.051Z,98790.03
2023-07-12T11:07:50.365Z,98777.81
2023-07-12T11:10:53.773Z,98770.34
2023-07-12T11:14:44.816Z,98766.19
2023-07-12T11:17:55.113Z,98760.25
2023-07-12T11:21:25.602Z,98753.97
2023-07-12T11:24:31.097Z,98768.75
2023-07-12T11:27:57.622Z,98771.84
2023-07-12T11:31:24.896Z,98759.84
2023-07-12T11:34:28.580Z,98774.75
2023-07-12T11:37:46.990Z,98770.84
2023-07-12T11:40:53.932Z,98770.25
2023-07-12T11:44:06.689Z,98779.25
2023-07-12T11:47:10.869Z,98776.97
2023-07-12T11:50:21.513Z,98780.56
2023-07-12T11:53:25.238Z,98784.56
2023-07-12T11:56:29.416Z,98759.31
2023-07-12T11:59:37.775Z,98781.41
2023-07-12T12:02:42.813Z,98777.50
2023-07-12T12:05:49.605Z,98776.06
2023-07-12T12:08:55.408Z,98788.03
2023-07-12T12:11:59.295Z,98779.53
2023-07-12T12:15:01.894Z,98784.63
2023-07-12T12:18:17.137Z,98790.06
2023-07-12T12:21:23.743Z,98788.84
2023-07-12T12:24:26.556Z,98785.31
2023-07-12T12:27:36.573Z,98781.34
2023-07-12T12:30:38.888Z,98779.72
2023-07-12T12:33:50.897Z,98778.88
2023-07-12T12:37:10.554Z,98771.66
2023-07-12T12:40:19.043Z,98773.97
2023-07-12T12:43:21.362Z,98777.88
2023-07-12T12:46:24.757Z,98775.59
2023-07-12T12:53:26.896Z,98761.97
2023-07-12T13:05:32.488Z,98747.00
2023-07-12T13:18:12.199Z,98724.75
2023-07-12T13:21:26.242Z,98726.50
2023-07-12T13:24:29.105Z,98730.72
2023-07-12T13:27:37.587Z,98724.78
2023-07-12T13:30:40.978Z,98731.97
2023-07-12T13:33:55.559Z,98724.91
2023-07-12T13:37:00.384Z,98710.16
2023-07-12T13:40:04.198Z,98719.16
2023-07-12T13:43:31.416Z,98710.94
2023-07-12T13:46:33.269Z,98709.25
2023-07-12T13:49:35.570Z,98706.31
2023-07-12T13:52:37.847Z,98708.63
2023-07-12T14:03:05.309Z,98699.97
2023-07-12T14:11:31.151Z,98703.41
2023-07-12T14:14:33.398Z,98696.88
2023-07-12T14:17:36.341Z,98687.84
2023-07-12T14:20:39.055Z,98682.97
2023-07-12T14:23:42.255Z,98683.31
2023-07-12T14:26:44.910Z,98682.09
2023-07-12T14:32:55.864Z,98659.41
2023-07-12T14:35:58.629Z,98672.53
2023-07-12T14:39:01.765Z,98672.66
2023-07-12T14:42:04.536Z,98691.91
2023-07-12T14:45:13.642Z,98675.16
2023-07-12T14:48:16.403Z,98664.94
2023-07-12T14:51:24.291Z,98672.94
2023-07-12T14:54:26.770Z,98660.03
2023-07-12T14:58:02.951Z,98677.00
2023-07-12T15:00:52.614Z,98675.69
2023-07-12T15:03:57.280Z,98663.09
2023-07-12T15:06:59.609Z,98666.38
2023-07-12T15:10:05.101Z,98665.31
2023-07-12T15:13:10.092Z,98653.72
2023-07-12T15:16:20.839Z,98642.16
2023-07-12T15:19:23.174Z,98648.22
2023-07-12T15:22:29.747Z,98645.72
2023-07-12T15:25:32.326Z,98639.28
2023-07-12T15:28:39.565Z,98644.66
2023-07-12T15:31:41.864Z,98644.44
2023-07-12T15:34:47.182Z,98651.09
2023-07-12T15:37:54.679Z,98660.91
2023-07-12T15:40:59.439Z,98660.47
2023-07-12T15:44:02.130Z,98663.84
2023-07-12T15:47:04.777Z,98656.09
2023-07-12T15:50:08.906Z,98677.75
2023-07-12T15:53:19.493Z,98673.97
2023-07-12T15:56:26.037Z,98686.59
2023-07-12T15:59:30.304Z,98692.22
2023-07-12T16:02:32.679Z,98685.47
2023-07-12T16:05:35.203Z,98699.16
2023-07-12T16:08:38.538Z,98692.72
2023-07-12T16:11:44.755Z,98708.09
2023-07-12T16:14:47.365Z,98702.47
2023-07-12T16:17:49.903Z,98707.13
2023-07-12T16:20:54.314Z,98715.63
2023-07-12T16:23:58.063Z,98719.59
2023-07-12T16:27:00.316Z,98718.03
2023-07-12T16:30:02.547Z,98720.88
2023-07-12T16:33:16.498Z,98719.47
2023-07-12T16:36:19.218Z,98715.97
2023-07-12T16:39:21.857Z,98716.88
2023-07-12T16:42:28.575Z,98710.84
2023-07-12T16:45:30.968Z,98714.44
2023-07-12T16:48:33.863Z,98715.41
2023-07-12T16:52:00.020Z,98712.84
2023-07-12T16:55:02.389Z,98718.13
2023-07-12T16:58:17.782Z,98715.47
2023-07-12T17:01:27.259Z,98712.97
2023-07-12T17:04:30.274Z,98710.34
2023-07-12T17:07:32.685Z,98716.47
2023-07-12T17:10:34.958Z,98716.56
2023-07-12T17:13:37.239Z,98715.00
2023-07-12T17:16:40.758Z,98721.47
2023-07-12T17:19:44.295Z,98723.44
2023-07-12T17:22:46.560Z,98729.88
2023-07-12T17:25:49.639Z,98729.13
2023-07-12T17:28:51.889Z,98742.44
2023-07-12T17:31:54.249Z,98730.16
2023-07-12T17:34:56.817Z,98729.34
2023-07-12T17:37:59.028Z,98735.63
2023-07-12T17:41:02.564Z,98736.56
2023-07-12T17:44:04.865Z,98748.13
2023-07-12T17:47:17.703Z,98744.69
2023-07-12T17:50:22.487Z,98747.78
2023-07-12T17:53:24.917Z,98763.53
2023-07-12T17:56:27.392Z,98753.34
2023-07-12T17:59:29.632Z,98761.47
2023-07-12T18:02:37.654Z,98768.63
2023-07-12T18:05:44.494Z,98776.78
2023-07-12T18:08:47.094Z,98779.59
2023-07-12T18:11:49.450Z,98788.47
2023-07-12T18:14:51.959Z,98790.41
2023-07-12T18:17:54.288Z,98787.00
2023-07-12T18:21:42.524Z,98786.94
2023-07-12T18:24:54.644Z,98792.09
2023-07-12T18:28:28.214Z,98775.41
2023-07-12T18:31:38.165Z,98770.13
2023-07-12T18:34:40.500Z,98771.22
2023-07-12T18:37:42.884Z,98784.47
2023-07-12T18:40:45.492Z,98782.78
2023-07-12T18:43:49.476Z,98781.13
2023-07-12T18:46:53.918Z,98782.94
2023-07-12T18:49:57.908Z,98790.81
2023-07-12T18:53:00.384Z,98790.00
2023-07-12T18:56:03.872Z,98798.75
2023-07-12T18:59:06.680Z,98810.13
2023-07-12T19:02:14.344Z,98813.66
2023-07-12T19:05:27.010Z,98811.91
2023-07-12T19:08:33.427Z,98816.25
2023-07-12T19:11:38.895Z,98814.53
2023-07-12T19:14:41.600Z,98810.19
2023-07-12T19:17:44.101Z,98816.31
2023-07-12T19:20:46.463Z,98818.91
2023-07-12T19:23:48.927Z,98823.28
2023-07-12T19:26:55.606Z,98828.56
2023-07-12T19:29:58.440Z,98818.06
2023-07-12T19:33:01.304Z,98828.50
2023-07-12T19:36:04.349Z,98826.72
2023-07-12T19:39:06.720Z,98826.69
2023-07-12T19:42:09.077Z,98830.19
2023-07-12T19:45:23.264Z,98833.63
2023-07-12T19:48:25.735Z,98833.59
2023-07-12T19:51:34.632Z,98832.66
2023-07-12T19:54:36.944Z,98834.41
2023-07-12T19:57:39.188Z,98843.13
2023-07-12T20:00:42.039Z,98838.75
2023-07-12T20:03:45.052Z,98829.06
2023-07-12T20:06:47.442Z,98830.72
2023-07-12T20:09:50.080Z,98833.31
2023-07-12T20:12:52.324Z,98836.81
2023-07-12T20:15:56.207Z,98836.81
2023-07-12T20:18:58.727Z,98844.63
2023-07-12T20:22:05.374Z,98835.84
2023-07-12T20:25:09.543Z,98834.97
2023-07-12T20:28:11.791Z,98833.22
2023-07-12T20:31:17.165Z,98833.09
2023-07-12T20:34:19.624Z,98826.03
2023-07-12T20:37:21.911Z,98833.81
2023-07-12T20:40:24.287Z,98828.50
2023-07-12T20:43:30.524Z,98821.41
2023-07-12T20:46:38.685Z,98818.78
2023-07-12T20:49:48.621Z,98831.91
2023-07-12T20:52:51.815Z,98822.28
2023-07-12T20:55:54.596Z,98826.56
2023-07-12T20:58:56.981Z,98822.97
2023-07-12T21:01:59.557Z,98830.72
2023-07-12T21:05:02.257Z,98834.06
2023-07-12T21:08:04.772Z,98831.34
2023-07-12T21:11:07.904Z,98833.88
2023-07-12T21:14:10.147Z,98838.06
2023-07-12T21:17:12.385Z,98842.38
2023-07-12T21:20:14.630Z,98848.41
2023-07-12T21:23:17.692Z,98847.47
2023-07-12T21:26:20.241Z,98848.22
2023-07-12T21:29:22.538Z,98855.19
2023-07-12T21:32:24.778Z,98857.00
2023-07-12T21:35:27.201Z,98848.28
2023-07-12T21:38:30.113Z,98851.88
2023-07-12T21:41:33.302Z,98849.09
2023-07-12T21:44:35.530Z,98849.91
2023-07-12T21:47:37.789Z,98836.84
2023-07-12T21:50:41.325Z,98834.84
2023-07-12T21:53:43.558Z,98844.28
2023-07-12T21:56:46.125Z,98842.63
2023-07-12T21:59:53.697Z,98834.66
2023-07-12T22:02:56.458Z,98847.72
2023-07-12T22:05:59.018Z,98844.81
2023-07-12T22:09:08.397Z,98852.78
2023-07-12T22:12:10.769Z,98846.44
2023-07-12T22:15:13.110Z,98848.06
2023-07-12T22:18:15.371Z,98849.91
2023-07-12T22:21:19.744Z,98864.00
2023-07-12T22:24:23.020Z,98879.63
2023-07-12T22:27:25.284Z,98883.06
2023-07-12T22:30:34.120Z,98880.59
2023-07-12T22:33:36.851Z,98878.16
2023-07-12T22:41:22.221Z,98890.41
2023-07-12T22:44:24.602Z,98888.94
2023-07-12T22:47:27.503Z,98900.44
2023-07-12T22:50:30.740Z,98911.91
2023-07-12T22:53:33.039Z,98898.84
2023-07-12T22:56:35.266Z,98917.31
2023-07-12T22:59:37.495Z,98911.22
2023-07-12T23:02:39.958Z,98905.00
2023-07-12T23:05:42.278Z,98900.75
2023-07-12T23:08:44.581Z,98895.44
2023-07-12T23:11:48.365Z,98885.78
2023-07-12T23:14:52.025Z,98877.88
2023-07-12T23:17:54.385Z,98858.47
2023-07-12T23:20:57.679Z,98851.28
2023-07-12T23:23:59.940Z,98868.84
2023-07-12T23:27:04.873Z,98869.03
2023-07-12T23:30:08.884Z,98873.47
2023-07-12T23:33:11.163Z,98891.91
2023-07-12T23:36:15.849Z,98938.13
2023-07-12T23:39:19.040Z,98934.66
2023-07-12T23:42:21.286Z,98949.56
2023-07-12T23:45:24.341Z,98967.94
2023-07-12T23:48:28.164Z,98980.94
2023-07-12T23:51:30.401Z,98968.63
2023-07-12T23:54:33.055Z,98977.19
2023-07-12T23:57:35.402Z,98976.97
